createdAt,value
2018-12-19T00:00:20.348Z,6.70
2018-12-19T00:02:48.718Z,6.70
2018-12-19T00:05:17.094Z,6.70
2018-12-19T00:07:45.930Z,6.70
2018-12-19T00:10:14.296Z,6.80
2018-12-19T00:12:42.664Z,6.90
2018-12-19T00:15:11.165Z,6.90
2018-12-19T00:17:39.712Z,6.90
2018-12-19T00:20:08.192Z,6.90
2018-12-19T00:22:36.557Z,6.90
2018-12-19T00:25:06.201Z,6.90
2018-12-19T00:27:34.572Z,6.90
2018-12-19T00:30:03.705Z,6.90
2018-12-19T00:32:32.093Z,6.90
2018-12-19T00:35:00.468Z,6.90
2018-12-19T00:37:28.880Z,6.90
2018-12-19T00:39:57.248Z,6.80
2018-12-19T00:42:25.645Z,6.90
2018-12-19T00:44:54.057Z,6.80
2018-12-19T00:47:22.447Z,6.90
2018-12-19T00:49:50.821Z,6.80
2018-12-19T00:52:19.196Z,6.80
2018-12-19T00:54:47.565Z,6.80
2018-12-19T00:57:15.953Z,6.90
2018-12-19T00:59:44.340Z,7.00
2018-12-19T01:02:12.710Z,7.00
2018-12-19T01:04:41.119Z,7.00
2018-12-19T01:07:09.487Z,7.00
2018-12-19T01:09:38.604Z,7.00
2018-12-19T01:12:07.404Z,7.00
2018-12-19T01:14:35.769Z,7.00
2018-12-19T01:17:04.580Z,7.00
2018-12-19T01:19:32.967Z,7.00
2018-12-19T01:22:01.354Z,7.10
2018-12-19T01:24:29.727Z,7.10
2018-12-19T01:26:58.134Z,7.10
2018-12-19T01:29:26.524Z,7.20
2018-12-19T01:31:54.899Z,7.20
2018-12-19T01:34:23.327Z,7.20
2018-12-19T01:36:51.946Z,7.20
2018-12-19T01:39:22.616Z,7.20
2018-12-19T01:41:50.683Z,7.20
2018-12-19T01:44:19.039Z,7.20
2018-12-19T01:46:47.418Z,7.20
2018-12-19T01:49:15.784Z,7.20
2018-12-19T01:51:44.157Z,7.20
2018-12-19T01:54:12.534Z,7.20
2018-12-19T01:56:40.912Z,7.30
2018-12-19T01:59:09.276Z,7.30
2018-12-19T02:01:37.663Z,7.20
2018-12-19T02:04:06.042Z,7.20
2018-12-19T02:06:34.408Z,7.20
2018-12-19T02:09:02.836Z,7.10
2018-12-19T02:11:31.236Z,7.20
2018-12-19T02:13:59.615Z,7.10
2018-12-19T02:16:27.972Z,7.10
2018-12-19T02:18:56.362Z,7.10
2018-12-19T02:21:24.712Z,7.00
2018-12-19T02:23:53.108Z,7.00
2018-12-19T02:26:21.504Z,6.90
2018-12-19T02:28:49.872Z,6.90
2018-12-19T02:31:18.241Z,6.90
2018-12-19T02:33:46.884Z,6.90
2018-12-19T02:36:15.216Z,7.00
2018-12-19T02:38:43.588Z,7.00
2018-12-19T02:41:11.982Z,6.90
2018-12-19T02:43:40.357Z,6.90
2018-12-19T02:46:09.152Z,6.90
2018-12-19T02:48:37.582Z,6.80
2018-12-19T02:51:06.155Z,6.80
2018-12-19T02:53:34.533Z,6.80
2018-12-19T02:56:02.900Z,6.80
2018-12-19T02:58:31.267Z,6.80
2018-12-19T03:00:59.626Z,6.80
2018-12-19T03:03:28.005Z,6.80
2018-12-19T03:05:56.359Z,6.80
2018-12-19T03:08:24.729Z,6.80
2018-12-19T03:10:53.083Z,6.90
2018-12-19T03:13:21.458Z,6.90
2018-12-19T03:15:49.985Z,6.90
2018-12-19T03:18:18.376Z,7.00
2018-12-19T03:20:46.755Z,7.00
2018-12-19T03:23:15.108Z,7.00
2018-12-19T03:25:43.947Z,7.10
2018-12-19T03:28:12.323Z,7.10
2018-12-19T03:30:40.702Z,7.10
2018-12-19T03:33:09.063Z,7.10
2018-12-19T03:35:37.428Z,7.10
2018-12-19T03:38:05.798Z,7.10
2018-12-19T03:40:34.803Z,7.10
2018-12-19T03:43:04.833Z,7.10
2018-12-19T03:45:33.439Z,7.10
2018-12-19T03:48:01.801Z,7.10
2018-12-19T03:50:30.187Z,7.10
2018-12-19T03:52:58.552Z,7.20
2018-12-19T03:55:26.927Z,7.20
2018-12-19T03:57:55.630Z,7.20
2018-12-19T04:00:24.001Z,7.20
2018-12-19T04:02:52.364Z,7.20
2018-12-19T04:05:20.732Z,7.20
2018-12-19T04:07:49.087Z,7.20
2018-12-19T04:10:17.460Z,7.20
2018-12-19T04:12:45.831Z,7.20
2018-12-19T04:15:14.541Z,7.20
2018-12-19T04:17:42.898Z,7.30
2018-12-19T04:20:11.274Z,7.30
2018-12-19T04:22:39.648Z,7.30
2018-12-19T04:25:08.041Z,7.20
2018-12-19T04:27:36.632Z,7.30
2018-12-19T04:30:05.961Z,7.20
2018-12-19T04:32:34.893Z,7.20
2018-12-19T04:35:03.595Z,7.20
2018-12-19T04:37:31.960Z,7.20
2018-12-19T04:40:05.311Z,7.20
2018-12-19T04:42:31.248Z,7.20
2018-12-19T04:44:59.620Z,7.20
2018-12-19T04:47:28.044Z,7.20
2018-12-19T04:49:56.437Z,7.30
2018-12-19T04:52:24.782Z,7.20
2018-12-19T04:54:53.138Z,7.30
2018-12-19T04:57:21.492Z,7.30
2018-12-19T04:59:49.861Z,7.30
2018-12-19T05:02:18.225Z,7.40
2018-12-19T05:04:46.595Z,7.40
2018-12-19T05:07:15.004Z,7.40
2018-12-19T05:09:43.606Z,7.40
2018-12-19T05:12:11.968Z,7.40
2018-12-19T05:14:40.685Z,7.50
2018-12-19T05:17:09.610Z,7.40
2018-12-19T05:19:38.430Z,7.40
2018-12-19T05:22:07.040Z,7.40
2018-12-19T05:24:35.512Z,7.50
2018-12-19T05:27:03.893Z,7.50
2018-12-19T05:29:32.254Z,7.50
2018-12-19T05:32:00.612Z,7.40
2018-12-19T05:34:28.988Z,7.40
2018-12-19T05:36:57.363Z,7.50
2018-12-19T05:39:25.720Z,7.40
2018-12-19T05:41:54.100Z,7.40
2018-12-19T05:44:22.471Z,7.40
2018-12-19T05:46:50.968Z,7.50
2018-12-19T05:49:19.328Z,7.40
2018-12-19T05:51:47.709Z,7.40
2018-12-19T05:54:16.079Z,7.30
2018-12-19T05:56:44.456Z,7.40
2018-12-19T05:59:12.812Z,7.30
2018-12-19T06:01:41.209Z,7.30
2018-12-19T06:04:09.599Z,7.40
2018-12-19T06:06:37.969Z,7.40
2018-12-19T06:09:07.452Z,7.40
2018-12-19T06:14:26.765Z,7.40
2018-12-19T06:16:55.106Z,7.30
2018-12-19T06:19:23.485Z,7.30
2018-12-19T06:21:51.860Z,7.30
2018-12-19T06:24:20.250Z,7.40
2018-12-19T06:26:48.604Z,7.40
2018-12-19T06:29:17.035Z,7.30
2018-12-19T06:31:45.455Z,7.30
2018-12-19T06:34:13.836Z,7.30
2018-12-19T06:36:42.203Z,7.40
2018-12-19T06:39:10.593Z,7.40
2018-12-19T06:41:39.062Z,7.40
2018-12-19T06:44:07.430Z,7.40
2018-12-19T06:46:35.799Z,7.40
2018-12-19T06:49:04.159Z,7.50
2018-12-19T06:51:32.531Z,7.50
2018-12-19T06:54:00.955Z,7.50
2018-12-19T06:56:29.579Z,7.50
2018-12-19T06:58:58.861Z,7.50
2018-12-19T07:01:27.608Z,7.60
2018-12-19T07:03:55.986Z,7.60
2018-12-19T07:06:24.365Z,7.60
2018-12-19T07:08:53.331Z,7.60
2018-12-19T07:11:21.706Z,7.70
2018-12-19T07:13:50.056Z,7.70
2018-12-19T07:16:18.437Z,7.70
2018-12-19T07:18:46.788Z,7.70
2018-12-19T07:21:15.172Z,7.70
2018-12-19T07:23:43.905Z,7.70
2018-12-19T07:26:12.319Z,7.70
2018-12-19T07:28:40.976Z,7.70
2018-12-19T07:31:09.404Z,7.70
2018-12-19T07:33:37.764Z,7.70
2018-12-19T07:36:06.197Z,7.70
2018-12-19T07:38:34.548Z,7.70
2018-12-19T07:41:02.916Z,7.80
2018-12-19T07:43:31.297Z,7.70
2018-12-19T07:45:59.660Z,7.80
2018-12-19T07:48:28.592Z,7.80
2018-12-19T07:50:56.981Z,7.80
2018-12-19T07:53:25.325Z,7.70
2018-12-19T07:55:54.479Z,7.60
2018-12-19T07:58:22.863Z,7.60
2018-12-19T08:00:51.235Z,7.60
2018-12-19T08:03:19.658Z,7.50
2018-12-19T08:05:48.010Z,7.50
2018-12-19T08:08:16.408Z,7.40
2018-12-19T08:10:44.787Z,7.50
2018-12-19T08:13:13.164Z,7.50
2018-12-19T08:15:41.533Z,7.50
2018-12-19T08:18:10.341Z,7.60
2018-12-19T08:20:39.840Z,7.60
2018-12-19T08:23:08.248Z,7.70
2018-12-19T08:25:36.604Z,7.70
2018-12-19T08:28:05.200Z,7.80
2018-12-19T08:30:33.892Z,7.90
2018-12-19T08:33:02.262Z,8.00
2018-12-19T08:35:30.627Z,8.00
2018-12-19T08:37:59.008Z,8.00
2018-12-19T08:40:27.369Z,8.10
2018-12-19T08:42:55.731Z,8.20
2018-12-19T08:45:24.671Z,8.20
2018-12-19T08:47:53.016Z,8.20
2018-12-19T08:50:21.386Z,8.20
2018-12-19T08:52:49.737Z,8.20
2018-12-19T08:55:18.116Z,8.20
2018-12-19T08:57:46.456Z,8.20
2018-12-19T09:00:14.825Z,8.20
2018-12-19T09:02:43.629Z,8.20
2018-12-19T09:05:11.984Z,8.30
2018-12-19T09:07:40.347Z,8.30
2018-12-19T09:10:09.687Z,8.30
2018-12-19T09:12:38.060Z,8.30
2018-12-19T09:15:08.104Z,8.30
2018-12-19T09:17:36.479Z,8.30
2018-12-19T09:20:06.809Z,8.40
2018-12-19T09:22:35.155Z,8.50
2018-12-19T09:25:04.539Z,8.60
2018-12-19T09:27:32.887Z,8.70
2018-12-19T09:30:02.099Z,8.70
2018-12-19T09:32:30.473Z,8.70
2018-12-19T09:34:58.845Z,8.70
2018-12-19T09:37:27.188Z,8.70
2018-12-19T09:39:55.562Z,8.70
2018-12-19T09:42:23.944Z,8.70
2018-12-19T09:44:52.304Z,8.80
2018-12-19T09:47:20.660Z,8.80
2018-12-19T09:49:49.038Z,8.90
2018-12-19T09:52:17.394Z,8.90
2018-12-19T09:54:45.745Z,9.00
2018-12-19T09:57:14.104Z,9.20
2018-12-19T09:59:42.506Z,9.20
2018-12-19T10:02:11.522Z,9.30
2018-12-19T10:04:39.864Z,9.30
2018-12-19T10:07:07.908Z,9.40
2018-12-19T10:09:36.277Z,9.50
2018-12-19T10:12:05.340Z,9.50
2018-12-19T10:14:33.701Z,9.50
2018-12-19T10:17:02.069Z,9.70
2018-12-19T10:19:30.439Z,9.70
2018-12-19T10:21:58.820Z,9.80
2018-12-19T10:25:31.240Z,9.80
2018-12-19T10:27:59.603Z,9.80
2018-12-19T10:30:27.944Z,9.60
2018-12-19T10:32:57.145Z,9.50
2018-12-19T10:35:25.855Z,9.40
2018-12-19T10:37:54.204Z,9.40
2018-12-19T10:40:22.563Z,9.50
2018-12-19T10:42:50.911Z,9.50
2018-12-19T10:45:19.284Z,9.50
2018-12-19T10:47:47.652Z,9.50
2018-12-19T10:50:16.016Z,9.50
2018-12-19T10:52:44.371Z,9.40
2018-12-19T10:55:12.743Z,9.50
2018-12-19T10:57:41.096Z,9.50
2018-12-19T11:00:17.880Z,9.50
2018-12-19T11:02:46.364Z,9.40
2018-12-19T11:05:14.738Z,9.40
2018-12-19T11:07:43.073Z,9.30
2018-12-19T11:10:11.435Z,9.30
2018-12-19T11:12:39.802Z,9.30
2018-12-19T11:15:10.469Z,9.30
2018-12-19T11:17:39.288Z,9.30
2018-12-19T11:20:09.496Z,9.30
2018-12-19T11:22:37.902Z,9.40
2018-12-19T11:25:06.992Z,9.40
2018-12-19T11:27:35.361Z,9.40
2018-12-19T11:30:04.696Z,9.50
2018-12-19T11:32:33.481Z,9.50
2018-12-19T11:35:01.882Z,9.60
2018-12-19T11:37:30.253Z,9.60
2018-12-19T11:39:58.884Z,9.60
2018-12-19T11:42:27.260Z,9.60
2018-12-19T11:44:56.855Z,9.80
2018-12-19T11:47:25.562Z,9.80
2018-12-19T11:49:53.912Z,9.80
2018-12-19T11:52:22.279Z,9.70
2018-12-19T11:54:50.664Z,9.70
2018-12-19T11:57:19.463Z,10.00
2018-12-19T11:59:47.836Z,10.30
2018-12-19T12:02:16.206Z,10.60
2018-12-19T12:04:44.588Z,10.70
2018-12-19T12:07:13.764Z,10.80
2018-12-19T12:09:42.139Z,10.70
2018-12-19T12:12:10.521Z,10.50
2018-12-19T12:14:38.877Z,10.20
2018-12-19T12:17:08.790Z,10.30
2018-12-19T12:19:37.464Z,10.50
2018-12-19T12:22:05.883Z,10.30
2018-12-19T12:24:34.257Z,10.20
2018-12-19T12:27:02.634Z,10.10
2018-12-19T12:29:31.028Z,10.10
2018-12-19T12:31:59.392Z,10.10
2018-12-19T12:34:28.044Z,9.90
2018-12-19T12:36:56.435Z,9.70
2018-12-19T12:39:24.801Z,9.60
2018-12-19T12:41:53.181Z,9.50
2018-12-19T12:44:21.523Z,9.40
2018-12-19T12:46:49.888Z,9.30
2018-12-19T12:49:18.681Z,9.30
2018-12-19T12:51:47.491Z,9.30
2018-12-19T12:54:15.837Z,9.30
2018-12-19T12:56:44.187Z,9.30
2018-12-19T12:59:12.553Z,9.30
2018-12-19T13:01:40.919Z,9.30
2018-12-19T13:04:09.277Z,9.40
2018-12-19T13:06:37.628Z,9.40
2018-12-19T13:09:08.507Z,9.40
2018-12-19T13:11:36.895Z,9.40
2018-12-19T13:14:05.286Z,9.40
2018-12-19T13:16:33.640Z,9.40
2018-12-19T13:19:01.993Z,9.40
2018-12-19T13:21:30.910Z,9.50
2018-12-19T13:23:59.273Z,9.40
2018-12-19T13:26:28.082Z,9.40
2018-12-19T13:28:56.441Z,9.40
2018-12-19T13:31:24.803Z,9.30
2018-12-19T13:33:53.169Z,9.30
2018-12-19T13:36:21.997Z,9.20
2018-12-19T13:38:50.343Z,9.20
2018-12-19T13:41:18.725Z,9.10
2018-12-19T13:43:47.104Z,9.00
2018-12-19T13:46:15.454Z,9.00
2018-12-19T13:48:43.820Z,9.00
2018-12-19T13:51:12.198Z,9.00
2018-12-19T13:53:40.568Z,9.00
2018-12-19T13:56:09.909Z,9.00
2018-12-19T13:58:38.600Z,9.00
2018-12-19T14:01:06.955Z,9.10
2018-12-19T14:03:35.480Z,9.10
2018-12-19T14:06:03.965Z,9.10
2018-12-19T14:08:32.319Z,9.20
2018-12-19T14:11:01.147Z,9.20
2018-12-19T14:13:29.496Z,9.20
2018-12-19T14:15:57.852Z,9.20
2018-12-19T14:18:26.209Z,9.20
2018-12-19T14:20:54.587Z,9.20
2018-12-19T14:23:23.018Z,9.20
2018-12-19T14:25:51.417Z,9.20
2018-12-19T14:28:19.780Z,9.20
2018-12-19T14:30:48.152Z,9.20
2018-12-19T14:33:17.561Z,9.10
2018-12-19T14:35:45.949Z,9.10
2018-12-19T14:38:14.493Z,9.00
2018-12-19T14:40:42.864Z,9.00
2018-12-19T14:43:11.315Z,8.90
2018-12-19T14:45:39.664Z,8.90
2018-12-19T14:48:08.089Z,8.80
2018-12-19T14:50:36.467Z,8.80
2018-12-19T14:53:04.803Z,8.80
2018-12-19T14:55:33.176Z,8.70
2018-12-19T14:58:01.547Z,8.70
2018-12-19T15:00:30.287Z,8.60
2018-12-19T15:02:58.637Z,8.60
2018-12-19T15:05:27.024Z,8.50
2018-12-19T15:07:55.453Z,8.40
2018-12-19T15:10:23.802Z,8.40
2018-12-19T15:12:52.181Z,8.30
2018-12-19T15:15:22.574Z,8.30
2018-12-19T15:17:50.948Z,8.20
2018-12-19T15:20:19.347Z,8.20
2018-12-19T15:22:47.721Z,8.10
2018-12-19T15:25:16.081Z,8.10
2018-12-19T15:27:44.694Z,8.10
2018-12-19T15:30:13.046Z,8.10
2018-12-19T15:32:41.514Z,8.10
2018-12-19T15:35:09.875Z,8.10
2018-12-19T15:37:38.243Z,8.10
2018-12-19T15:40:07.520Z,8.10
2018-12-19T15:42:35.900Z,8.10
2018-12-19T15:45:05.329Z,8.00
2018-12-19T15:47:33.692Z,8.00
2018-12-19T15:50:02.133Z,8.00
2018-12-19T15:52:30.488Z,8.00
2018-12-19T15:54:58.896Z,7.90
2018-12-19T15:57:27.260Z,7.90
2018-12-19T15:59:55.635Z,7.90
2018-12-19T16:02:23.975Z,8.00
2018-12-19T16:04:52.346Z,8.00
2018-12-19T16:07:21.136Z,8.00
2018-12-19T16:09:49.503Z,8.00
2018-12-19T16:12:17.869Z,8.00
2018-12-19T16:14:46.242Z,8.00
2018-12-19T16:17:14.604Z,8.00
2018-12-19T16:19:42.984Z,8.00
2018-12-19T16:22:11.348Z,8.00
2018-12-19T16:24:39.704Z,8.00
2018-12-19T16:27:08.077Z,8.00
2018-12-19T16:29:36.432Z,8.00
2018-12-19T16:32:04.805Z,8.00
2018-12-19T16:34:33.152Z,8.00
2018-12-19T16:37:01.533Z,8.00
2018-12-19T16:39:29.905Z,8.00
2018-12-19T16:41:58.714Z,7.90
2018-12-19T16:44:27.340Z,7.90
2018-12-19T16:46:55.714Z,8.00
2018-12-19T16:49:24.087Z,7.90
2018-12-19T16:51:52.513Z,7.90
2018-12-19T16:54:20.924Z,7.90
2018-12-19T16:56:49.294Z,7.90
2018-12-19T16:59:17.696Z,7.90
2018-12-19T17:01:46.084Z,7.80
2018-12-19T17:04:14.453Z,7.80
2018-12-19T17:06:42.883Z,7.70
2018-12-19T17:09:11.264Z,7.60
2018-12-19T17:11:39.620Z,7.60
2018-12-19T17:14:08.028Z,7.50
2018-12-19T17:16:36.394Z,7.40
2018-12-19T17:19:04.759Z,7.40
2018-12-19T17:21:33.126Z,7.30
2018-12-19T17:24:01.480Z,7.30
2018-12-19T17:26:29.870Z,7.20
2018-12-19T17:28:58.306Z,7.20
2018-12-19T17:31:26.908Z,7.20
2018-12-19T17:33:55.267Z,7.10
2018-12-19T17:36:23.657Z,7.10
2018-12-19T17:38:52.015Z,7.00
2018-12-19T17:41:21.288Z,7.00
2018-12-19T17:43:49.660Z,7.00
2018-12-19T17:46:18.039Z,7.00
2018-12-19T17:48:48.385Z,6.90
2018-12-19T17:51:16.758Z,6.90
2018-12-19T17:53:45.207Z,6.80
2018-12-19T17:56:13.611Z,6.80
2018-12-19T17:58:42.070Z,6.70
2018-12-19T18:01:11.481Z,6.60
2018-12-19T18:03:39.912Z,6.60
2018-12-19T18:06:08.293Z,6.50
2018-12-19T18:08:38.461Z,6.50
2018-12-19T18:11:06.905Z,6.50
2018-12-19T18:13:35.280Z,6.60
2018-12-19T18:16:03.751Z,6.60
2018-12-19T18:18:32.170Z,6.60
2018-12-19T18:21:00.549Z,6.60
2018-12-19T18:23:28.938Z,6.60
2018-12-19T18:25:57.336Z,6.50
2018-12-19T18:28:25.982Z,6.40
2018-12-19T18:30:54.513Z,6.30
2018-12-19T18:33:22.890Z,6.20
2018-12-19T18:35:51.308Z,6.20
2018-12-19T18:38:19.749Z,6.10
2018-12-19T18:40:48.167Z,6.00
2018-12-19T18:43:16.548Z,5.80
2018-12-19T18:45:45.033Z,5.90
2018-12-19T18:48:13.408Z,5.60
2018-12-19T18:50:42.023Z,5.60
2018-12-19T18:53:10.716Z,5.50
2018-12-19T18:55:39.116Z,5.50
2018-12-19T18:58:07.483Z,5.50
2018-12-19T19:00:38.196Z,5.60
2018-12-19T19:03:06.852Z,5.80
2018-12-19T19:05:36.336Z,5.90
2018-12-19T19:08:05.445Z,6.10
2018-12-19T19:10:34.021Z,6.20
2018-12-19T19:13:02.418Z,6.40
2018-12-19T19:15:30.820Z,6.50
2018-12-19T19:17:59.285Z,6.60
2018-12-19T19:20:27.672Z,6.60
2018-12-19T19:22:56.019Z,6.70
2018-12-19T19:25:24.447Z,6.80
2018-12-19T19:27:53.125Z,6.90
2018-12-19T19:30:21.519Z,7.00
2018-12-19T19:32:49.900Z,7.00
2018-12-19T19:35:18.733Z,7.20
2018-12-19T19:37:47.556Z,7.20
2018-12-19T19:40:15.947Z,7.20
2018-12-19T19:42:44.954Z,7.20
2018-12-19T19:45:13.336Z,7.30
2018-12-19T19:47:42.150Z,7.30
2018-12-19T19:50:11.000Z,7.40
2018-12-19T19:52:39.376Z,7.40
2018-12-19T19:55:07.753Z,7.40
2018-12-19T19:57:36.466Z,7.40
2018-12-19T20:00:07.025Z,7.50
2018-12-19T20:02:35.380Z,7.40
2018-12-19T20:05:03.788Z,7.40
2018-12-19T20:07:32.184Z,7.40
2018-12-19T20:10:00.573Z,7.30
2018-12-19T20:12:28.950Z,7.30
2018-12-19T20:14:58.548Z,7.20
2018-12-19T20:17:28.053Z,7.20
2018-12-19T20:19:56.448Z,7.20
2018-12-19T20:22:24.819Z,7.20
2018-12-19T20:24:53.195Z,7.10
2018-12-19T20:27:21.820Z,7.10
2018-12-19T20:29:50.217Z,7.00
2018-12-19T20:32:18.603Z,6.90
2018-12-19T20:34:47.044Z,6.90
2018-12-19T20:37:15.418Z,6.80
2018-12-19T20:39:43.791Z,6.80
2018-12-19T20:42:12.173Z,6.80
2018-12-19T20:44:40.534Z,6.70
2018-12-19T20:47:08.883Z,6.70
2018-12-19T20:49:37.272Z,6.70
2018-12-19T20:52:05.726Z,6.70
2018-12-19T20:54:35.560Z,6.60
2018-12-19T20:57:03.941Z,6.60
2018-12-19T20:59:32.317Z,6.60
2018-12-19T21:02:01.240Z,6.60
2018-12-19T21:04:29.714Z,6.50
2018-12-19T21:06:58.067Z,6.60
2018-12-19T21:09:26.465Z,6.60
2018-12-19T21:11:55.276Z,6.50
2018-12-19T21:14:30.094Z,6.50
2018-12-19T21:17:03.974Z,6.50
2018-12-19T21:19:32.383Z,6.50
2018-12-19T21:22:00.756Z,6.50
2018-12-19T21:24:29.147Z,6.50
2018-12-19T21:26:57.520Z,6.40
2018-12-19T21:29:25.893Z,6.50
2018-12-19T21:31:54.272Z,6.50
2018-12-19T21:34:22.652Z,6.60
2018-12-19T21:36:51.019Z,6.60
2018-12-19T21:39:19.406Z,6.50
2018-12-19T21:41:48.031Z,6.60
2018-12-19T21:44:16.724Z,6.50
2018-12-19T21:46:45.182Z,6.50
2018-12-19T21:49:13.756Z,6.50
2018-12-19T21:51:42.184Z,6.50
2018-12-19T21:54:10.807Z,6.40
2018-12-19T21:56:39.470Z,6.40
2018-12-19T21:59:08.518Z,6.40
2018-12-19T22:01:37.111Z,6.30
2018-12-19T22:04:05.492Z,6.30
2018-12-19T22:06:33.855Z,6.30
2018-12-19T22:09:02.366Z,6.20
2018-12-19T22:11:31.427Z,6.20
2018-12-19T22:14:00.678Z,6.20
2018-12-19T22:16:34.808Z,6.10
2018-12-19T22:19:03.300Z,6.10
2018-12-19T22:21:31.922Z,6.10
2018-12-19T22:24:00.524Z,6.20
2018-12-19T22:26:29.182Z,6.20
2018-12-19T22:28:59.455Z,6.20
2018-12-19T22:31:28.094Z,6.20
2018-12-19T22:33:56.779Z,6.20
2018-12-19T22:36:25.386Z,6.20
2018-12-19T22:38:53.828Z,6.20
2018-12-19T22:41:22.391Z,6.20
2018-12-19T22:43:50.843Z,6.20
2018-12-19T22:46:19.475Z,6.30
2018-12-19T22:48:48.135Z,6.30
2018-12-19T22:51:16.664Z,6.30
2018-12-19T22:53:45.031Z,6.40
2018-12-19T22:56:13.388Z,6.40
2018-12-19T22:58:41.776Z,6.40
2018-12-19T23:01:15.943Z,6.40
2018-12-19T23:03:50.360Z,6.40
2018-12-19T23:06:18.825Z,6.40
2018-12-19T23:08:47.359Z,6.50
2018-12-19T23:11:15.801Z,6.40
2018-12-19T23:13:44.400Z,6.40
2018-12-19T23:16:13.468Z,6.40
2018-12-19T23:18:42.644Z,6.40
2018-12-19T23:21:11.109Z,6.50
2018-12-19T23:23:39.752Z,6.60
2018-12-19T23:26:09.124Z,6.70
2018-12-19T23:28:37.961Z,6.70
2018-12-19T23:31:07.043Z,6.70
2018-12-19T23:33:35.802Z,6.70
2018-12-19T23:36:04.213Z,6.70
2018-12-19T23:38:33.114Z,6.70
2018-12-19T23:41:01.697Z,6.70
2018-12-19T23:43:30.140Z,6.70
2018-12-19T23:45:58.578Z,6.80
2018-12-19T23:48:27.144Z,6.80
2018-12-19T23:50:55.777Z,6.80
2018-12-19T23:53:24.172Z,6.90
2018-12-19T23:55:52.783Z,6.90
2018-12-19T23:58:21.139Z,6.90
